Time;durP1;ratioP1;P1;durP2;ratioP2;P2;SDS_P1;SDS_P2;PMS_P1;PMS_P2;Temp;Humidity;BMP_temperature;BMP_pressure;BME280_temperature;BME280_humidity;BME280_pressure;Samples;Min_cycle;Max_cycle;Signal;HPM_P1;HPM_P2
2022/05/29 00:01:50;;;;;;;10.35;1.88;;;;;;;12.66;57.39;100951.59;5088427;28;20080;-54
2022/05/29 00:04:15;;;;;;;7.80;2.10;;;;;;;12.63;57.41;100952.66;5093675;28;20023;-53
2022/05/29 00:06:43;;;;;;;6.45;1.55;;;;;;;12.62;57.61;100944.84;5088312;28;20095;-53
2022/05/29 00:09:11;;;;;;;10.38;1.90;;;;;;;12.60;57.49;100949.34;5090611;28;20536;-54
2022/05/29 00:11:37;;;;;;;5.75;1.52;;;;;;;12.56;57.55;100947.84;5086128;28;20504;-53
2022/05/29 00:14:03;;;;;;;7.50;1.63;;;;;;;12.52;57.72;100943.69;5086829;28;20024;-51
2022/05/29 00:16:30;;;;;;;7.97;1.83;;;;;;;12.49;57.78;100940.31;5090325;28;20089;-54
2022/05/29 00:18:56;;;;;;;3.88;1.67;;;;;;;12.46;57.86;100944.94;5085937;28;20028;-52
2022/05/29 00:21:22;;;;;;;6.80;2.10;;;;;;;12.43;57.90;100945.13;5083578;28;20073;-52
2022/05/29 00:23:50;;;;;;;8.63;2.00;;;;;;;12.40;58.09;100930.34;5089227;28;20046;-54
2022/05/29 00:26:17;;;;;;;4.10;1.63;;;;;;;12.38;58.04;100937.50;5093167;28;20511;-56
2022/05/29 00:28:43;;;;;;;7.57;1.88;;;;;;;12.35;58.17;100943.81;5090051;28;20102;-55
2022/05/29 00:31:09;;;;;;;9.15;2.08;;;;;;;12.36;58.22;100942.00;5093264;28;20151;-55
2022/05/29 00:33:35;;;;;;;5.93;2.08;;;;;;;12.33;58.41;100929.00;5083855;28;20099;-55
2022/05/29 00:36:01;;;;;;;9.00;1.75;;;;;;;12.31;58.33;100930.91;5081926;28;20029;-54
2022/05/29 00:38:28;;;;;;;6.80;1.60;;;;;;;12.32;58.42;100932.63;5086066;28;20038;-53
2022/05/29 00:41:18;;;;;;;4.45;1.63;;;;;;;12.33;58.39;100936.91;5075178;28;20028;-55
2022/05/29 00:44:06;;;;;;;;;;;;;;;12.31;58.38;100936.19;5084724;28;20032;-55
2022/05/29 00:46:34;;;;;;;5.28;1.60;;;;;;;12.28;58.39;100933.75;5090043;28;19928;-55
2022/05/29 00:48:59;;;;;;;10.45;1.80;;;;;;;12.26;58.42;100932.97;5091649;28;20068;-55
2022/05/29 00:51:26;;;;;;;10.80;2.05;;;;;;;12.25;58.65;100932.13;5084879;28;20024;-55
2022/05/29 00:53:51;;;;;;;7.15;1.70;;;;;;;12.27;58.73;100942.59;5087257;28;20031;-54
2022/05/29 00:56:17;;;;;;;7.57;2.10;;;;;;;12.26;58.71;100939.09;5084639;28;20028;-53
2022/05/29 00:58:44;;;;;;;4.90;1.67;;;;;;;12.24;58.93;100940.13;5087917;28;20395;-55
2022/05/29 01:01:11;;;;;;;9.75;2.58;;;;;;;12.22;58.81;100931.47;5091341;28;20039;-54
2022/05/29 01:03:37;;;;;;;6.68;1.88;;;;;;;12.18;59.08;100936.94;5082965;28;20093;-51
2022/05/29 01:06:03;;;;;;;7.25;2.00;;;;;;;12.17;59.10;100929.13;5091996;28;20414;-54
2022/05/29 01:08:36;;;;;;;6.38;1.88;;;;;;;12.16;59.32;100937.97;5091045;28;20054;-54
2022/05/29 01:11:16;;;;;;;6.07;1.92;;;;;;;12.14;59.36;100932.81;5091805;28;20453;-53
2022/05/29 01:13:45;;;;;;;5.03;1.83;;;;;;;12.15;59.30;100931.88;5092019;28;20486;-55
2022/05/29 01:16:26;;;;;;;6.40;1.83;;;;;;;12.17;59.54;100932.63;5086966;28;20032;-53
2022/05/29 01:19:09;;;;;;;8.43;1.95;;;;;;;12.17;59.53;100929.97;5082026;28;20030;-54
2022/05/29 01:21:50;;;;;;;6.93;1.92;;;;;;;12.16;59.60;100937.97;5086958;28;20028;-55
2022/05/29 01:24:28;;;;;;;6.30;2.00;;;;;;;12.14;59.61;100932.81;5086028;28;20103;-52
2022/05/29 01:27:11;;;;;;;12.27;1.92;;;;;;;12.13;59.62;100930.25;5093064;28;20543;-54
2022/05/29 01:30:03;;;;;;;8.25;1.80;;;;;;;12.12;59.69;100925.91;5086175;28;20034;-53
2022/05/29 01:32:53;;;;;;;10.40;2.10;;;;;;;12.11;59.75;100925.06;5079948;28;20036;-55
2022/05/29 01:35:43;;;;;;;5.07;2.38;;;;;;;12.08;59.89;100921.78;5095403;28;20043;-52
2022/05/29 01:38:22;;;;;;;8.55;1.70;;;;;;;12.05;59.92;100920.16;5078524;28;20046;-53
2022/05/29 01:41:19;;;;;;;8.88;2.10;;;;;;;12.03;59.92;100920.25;5090625;28;20383;-53
2022/05/29 01:43:53;;;;;;;6.47;2.00;;;;;;;12.02;59.99;100918.56;5084089;28;20086;-54
2022/05/29 01:46:32;;;;;;;6.50;1.85;;;;;;;12.01;60.15;100913.41;5084839;28;20032;-55
2022/05/29 01:49:28;;;;;;;5.43;1.95;;;;;;;11.99;60.24;100916.09;5083414;28;20031;-55
2022/05/29 01:52:06;;;;;;;6.82;1.88;;;;;;;12.01;60.30;100921.31;5081496;28;20045;-54
2022/05/29 01:54:46;;;;;;;6.18;1.80;;;;;;;12.02;60.22;100923.00;5090321;28;20024;-52
2022/05/29 01:57:17;;;;;;;8.73;2.33;;;;;;;12.03;60.10;100922.03;5087666;28;20101;-55
2022/05/29 01:59:50;;;;;;;6.55;2.10;;;;;;;12.04;60.17;100913.19;5091067;28;20403;-54
2022/05/29 02:02:22;;;;;;;8.15;1.92;;;;;;;12.06;60.21;100916.59;5086189;28;20028;-54
2022/05/29 02:04:52;;;;;;;8.63;2.00;;;;;;;12.06;60.24;100919.22;5084621;28;20035;-53
2022/05/29 02:10:09;;;;;;;6.22;1.52;;;;;;;12.08;60.18;100904.16;5084325;28;20085;-53
2022/05/29 02:12:40;;;;;;;5.93;1.88;;;;;;;12.09;60.29;100910.28;5087781;28;20023;-52
2022/05/29 02:15:13;;;;;;;7.97;2.05;;;;;;;12.09;60.22;100905.84;5087594;28;20073;-55
2022/05/29 02:17:42;;;;;;;5.35;1.67;;;;;;;12.11;60.26;100908.38;5081846;28;20077;-56
2022/05/29 02:20:21;;;;;;;8.73;2.05;;;;;;;12.13;60.34;100903.88;5086378;28;20024;-55
2022/05/29 02:22:50;;;;;;;3.50;1.50;;;;;;;12.13;60.20;100903.88;5087176;28;20036;-54
2022/05/29 02:25:20;;;;;;;6.68;2.15;;;;;;;12.13;60.42;100896.81;5087448;28;20036;-54
2022/05/29 02:27:55;;;;;;;8.07;1.90;;;;;;;12.14;60.47;100903.78;5084711;28;20588;-54
2022/05/29 02:30:26;;;;;;;8.32;2.00;;;;;;;12.16;60.41;100912.47;5086178;28;20482;-55
2022/05/29 02:33:18;;;;;;;5.18;1.60;;;;;;;12.17;60.46;100906.25;5086123;28;20032;-53
2022/05/29 02:36:23;;;;;;;6.55;1.73;;;;;;;12.19;60.54;100893.78;5087856;28;20384;-54
2022/05/29 02:39:20;;;;;;;5.60;1.70;;;;;;;12.19;60.67;100900.84;5089630;28;20092;-55
2022/05/29 02:42:13;;;;;;;6.22;1.60;;;;;;;12.18;60.56;100901.78;5085779;28;20028;-54
2022/05/29 02:45:10;;;;;;;4.65;1.70;;;;;;;12.19;60.72;100899.06;5088779;28;20120;-55
2022/05/29 02:47:42;;;;;;;6.40;1.60;;;;;;;12.20;60.53;100903.38;5080399;28;20750;-52
2022/05/29 02:50:23;;;;;;;6.63;1.70;;;;;;;12.24;60.72;100901.44;5088478;28;20067;-53
2022/05/29 02:52:51;;;;;;;6.25;1.50;;;;;;;12.26;60.67;100893.41;5088855;28;20027;-55
2022/05/29 02:55:18;;;;;;;6.45;1.63;;;;;;;12.27;60.59;100892.47;5089372;28;20028;-53
2022/05/29 02:57:44;;;;;;;6.72;1.88;;;;;;;12.27;60.58;100892.47;5092685;28;20046;-51
2022/05/29 03:00:13;;;;;;;2.88;1.52;;;;;;;12.26;60.88;100896.03;5092393;28;20381;-52
2022/05/29 03:02:53;;;;;;;4.20;1.65;;;;;;;12.28;60.88;100894.16;5095981;28;20042;-55
2022/05/29 03:05:54;;;;;;;7.60;1.95;;;;;;;12.32;60.67;100893.03;5089398;28;20028;-52
2022/05/29 03:08:51;;;;;;;5.93;1.52;;;;;;;12.35;60.67;100901.59;5090662;28;20560;-52
2022/05/29 03:11:19;;;;;;;4.78;1.52;;;;;;;12.39;60.67;100894.31;5088159;28;21528;-53
2022/05/29 03:13:53;;;;;;;4.07;1.50;;;;;;;12.42;60.47;100896.78;5089549;28;20114;-50
2022/05/29 03:16:56;;;;;;;5.53;1.60;;;;;;;12.45;60.45;100890.44;5090379;28;20300;-53
2022/05/29 03:19:45;;;;;;;12.98;1.92;;;;;;;12.47;60.39;100900.00;5092654;28;20027;-54
2022/05/29 03:22:49;;;;;;;27.63;3.65;;;;;;;12.49;60.31;100898.06;5084929;28;20071;-55
2022/05/29 03:25:21;;;;;;;5.35;1.73;;;;;;;12.51;60.39;100903.28;5090775;28;20027;-55
2022/05/29 03:27:49;;;;;;;8.05;1.73;;;;;;;12.52;60.33;100904.09;5091047;28;20111;-55
2022/05/29 03:30:21;;;;;;;6.90;1.70;;;;;;;12.53;60.64;100897.88;5091549;28;20039;-54
2022/05/29 03:32:53;;;;;;;7.72;1.73;;;;;;;12.52;60.44;100894.41;5088433;28;20035;-56
2022/05/29 03:35:21;;;;;;;4.60;1.52;;;;;;;12.55;60.32;100896.00;5088407;28;20035;-55
2022/05/29 03:37:46;;;;;;;6.13;1.88;;;;;;;12.57;60.38;100896.75;5086315;28;20150;-54
2022/05/29 03:40:13;;;;;;;6.07;1.85;;;;;;;12.59;60.33;100897.50;5081886;28;20028;-56
2022/05/29 03:42:38;;;;;;;8.93;1.80;;;;;;;12.59;60.33;100892.22;5091164;28;20020;-53
2022/05/29 03:45:05;;;;;;;5.72;1.83;;;;;;;12.60;60.45;100894.75;5090793;28;20039;-52
2022/05/29 03:47:30;;;;;;;6.95;1.80;;;;;;;12.65;60.40;100900.59;5093577;28;20047;-55
2022/05/29 03:49:56;;;;;;;3.72;1.63;;;;;;;12.69;60.29;100893.31;5089736;28;20028;-52
2022/05/29 03:52:22;;;;;;;7.68;1.60;;;;;;;12.72;60.21;100901.06;5094957;28;20507;-52
2022/05/29 03:54:47;;;;;;;5.25;1.52;;;;;;;12.76;60.20;100899.91;5089913;28;20036;-55
2022/05/29 03:57:13;;;;;;;8.63;1.92;;;;;;;12.78;60.12;100910.38;5092107;28;20020;-52
2022/05/29 03:59:38;;;;;;;6.82;2.35;;;;;;;12.80;60.07;100901.38;5091763;28;20062;-52
2022/05/29 04:02:04;;;;;;;4.13;1.88;;;;;;;12.83;59.85;100904.78;5091802;28;20373;-53
2022/05/29 04:04:29;;;;;;;77.35;9.82;;;;;;;12.81;59.88;100907.53;5090775;28;20039;-50
2022/05/29 04:06:55;;;;;;;5.53;1.83;;;;;;;12.80;59.74;100904.03;5092903;28;20035;-50
2022/05/29 04:12:05;;;;;;;8.63;2.35;;;;;;;12.80;59.93;100909.31;5086439;28;20120;-54
2022/05/29 04:14:39;;;;;;;5.88;2.08;;;;;;;12.81;60.01;100899.63;5088392;28;20035;-53
2022/05/29 04:17:06;;;;;;;9.82;2.10;;;;;;;12.80;59.81;100906.66;5088576;28;20028;-51
2022/05/29 04:19:32;;;;;;;4.63;1.95;;;;;;;12.84;60.19;100906.47;5087986;28;20028;-53
2022/05/29 04:21:58;;;;;;;6.57;2.22;;;;;;;12.87;60.04;100906.28;5094301;28;20043;-52
2022/05/29 04:24:24;;;;;;;5.13;1.92;;;;;;;12.90;60.00;100904.28;5085714;28;20131;-54
2022/05/29 04:26:50;;;;;;;6.20;1.92;;;;;;;12.92;59.91;100906.84;5095758;28;20486;-51
2022/05/29 04:29:17;;;;;;;6.38;1.90;;;;;;;12.93;59.81;100905.91;5084462;28;20025;-54
2022/05/29 04:32:59;;;;;;;5.68;1.70;;;;;;;12.92;59.83;100904.19;5089802;28;20395;-54
2022/05/29 04:34:28;;;;;;;6.43;1.75;;;;;;;12.91;59.76;100903.34;5089152;28;20032;-50
2022/05/29 04:36:54;;;;;;;6.00;1.83;;;;;;;12.88;59.75;100897.41;5088064;28;20028;-51
2022/05/29 04:39:20;;;;;;;7.13;2.53;;;;;;;12.87;59.87;100901.84;5089814;28;20476;-51
2022/05/29 04:41:45;;;;;;;6.72;2.13;;;;;;;12.86;59.89;100901.94;5087386;28;20091;-53
2022/05/29 04:44:11;;;;;;;6.75;1.92;;;;;;;12.85;60.10;100900.25;5088413;28;20051;-53
2022/05/29 04:46:36;;;;;;;8.00;2.00;;;;;;;12.84;59.83;100903.84;5091916;28;20114;-50
2022/05/29 04:49:02;;;;;;;6.18;2.42;;;;;;;12.82;60.20;100901.31;5085863;28;20039;-52
2022/05/29 04:51:28;;;;;;;7.63;1.73;;;;;;;12.84;60.05;100888.84;5088343;28;20389;-52
2022/05/29 04:53:53;;;;;;;5.75;1.60;;;;;;;12.86;60.09;100896.66;5085297;28;20476;-54
2022/05/29 04:56:19;;;;;;;6.32;2.13;;;;;;;12.87;60.02;100896.56;5093457;28;20027;-51
2022/05/29 04:58:44;;;;;;;9.52;2.30;;;;;;;12.86;59.93;100894.84;5087913;28;20080;-53
2022/05/29 05:01:10;;;;;;;2.80;1.52;;;;;;;12.86;60.00;100894.03;5084256;28;20024;-55
2022/05/29 05:03:35;;;;;;;6.43;1.80;;;;;;;12.88;60.10;100892.13;5089315;28;20637;-52
2022/05/29 05:06:01;;;;;;;4.63;1.73;;;;;;;12.88;59.86;100894.78;5084910;28;20089;-53
2022/05/29 05:08:27;;;;;;;4.63;2.20;;;;;;;12.90;60.01;100895.53;5084336;28;20034;-53
2022/05/29 05:10:53;;;;;;;8.90;2.08;;;;;;;12.92;60.00;100893.63;5074065;28;20031;-53
2022/05/29 05:13:18;;;;;;;7.30;1.95;;;;;;;12.93;59.93;100897.97;5092388;28;20450;-57
2022/05/29 05:15:44;;;;;;;9.48;2.00;;;;;;;12.92;60.04;100901.56;5088554;28;20028;-51
2022/05/29 05:18:09;;;;;;;8.50;2.20;;;;;;;12.92;59.94;100899.75;5084303;28;20033;-57
2022/05/29 05:20:37;;;;;;;11.68;2.58;;;;;;;12.94;59.89;100902.28;5085323;28;20028;-51
2022/05/29 05:23:02;;;;;;;8.77;2.10;;;;;;;12.92;59.75;100898.91;5095300;28;20032;-56
2022/05/29 05:25:28;;;;;;;5.40;2.05;;;;;;;12.93;59.89;100900.63;5086593;28;20034;-53
2022/05/29 05:27:53;;;;;;;8.32;1.73;;;;;;;12.88;59.66;100895.59;5085196;28;20115;-52
2022/05/29 05:30:19;;;;;;;7.30;2.47;;;;;;;12.90;59.80;100896.38;5081940;28;20100;-55
2022/05/29 05:32:45;;;;;;;8.00;1.98;;;;;;;12.90;60.01;100900.81;5087829;28;20454;-50
2022/05/29 05:35:10;;;;;;;7.72;1.85;;;;;;;12.90;60.04;100899.00;5087763;28;20032;-50
2022/05/29 05:37:38;;;;;;;5.55;1.77;;;;;;;12.90;59.83;100906.94;5088462;28;20023;-51
2022/05/29 05:40:07;;;;;;;6.68;1.98;;;;;;;12.92;59.59;100901.56;5085693;28;20032;-54
2022/05/29 05:42:32;;;;;;;7.63;1.73;;;;;;;12.91;59.77;100907.78;5093689;28;20093;-50
2022/05/29 05:44:58;;;;;;;4.63;2.00;;;;;;;12.92;59.51;100909.50;5090042;28;20029;-52
2022/05/29 05:47:24;;;;;;;5.82;2.00;;;;;;;12.93;59.42;100911.19;5080874;28;20081;-52
2022/05/29 05:49:50;;;;;;;3.28;1.50;;;;;;;12.95;59.53;100903.97;5086104;28;20032;-56
2022/05/29 05:52:17;;;;;;;4.10;1.90;;;;;;;13.03;59.30;100903.47;5085052;28;20055;-53
2022/05/29 05:54:44;;;;;;;6.43;2.50;;;;;;;13.09;59.06;100903.91;5088890;28;20085;-53
2022/05/29 05:57:10;;;;;;;6.55;1.95;;;;;;;13.13;59.07;100909.00;5093736;28;20054;-50
2022/05/29 05:59:38;;;;;;;4.97;2.00;;;;;;;13.18;58.97;100905.09;5080830;28;20040;-51
2022/05/29 06:02:06;;;;;;;5.90;1.92;;;;;;;13.23;58.81;100907.47;5084083;28;20035;-49
2022/05/29 06:04:31;;;;;;;4.10;2.10;;;;;;;13.28;58.76;100905.34;5085026;28;20028;-50
2022/05/29 06:06:57;;;;;;;5.82;1.70;;;;;;;13.33;58.68;100912.97;5079032;28;20199;-52
2022/05/29 06:09:23;;;;;;;6.28;1.70;;;;;;;13.36;58.63;100907.47;5082998;28;20107;-55
2022/05/29 06:11:49;;;;;;;4.75;1.98;;;;;;;13.36;58.47;100908.34;5088471;28;20034;-53
2022/05/29 06:14:14;;;;;;;4.78;1.98;;;;;;;13.38;58.41;100910.88;5088130;28;20031;-52
2022/05/29 06:16:40;;;;;;;9.25;2.83;;;;;;;13.36;58.72;100913.63;5079928;27;20039;-49
2022/05/29 06:19:06;;;;;;;4.68;1.90;;;;;;;13.36;58.84;100912.78;5081831;28;20107;-53
2022/05/29 06:21:33;;;;;;;4.38;1.85;;;;;;;13.37;58.47;100917.97;5079846;28;20029;-51
2022/05/29 06:23:59;;;;;;;2.20;1.40;;;;;;;13.40;58.32;100914.28;5079857;28;20024;-54
2022/05/29 06:26:24;;;;;;;4.25;1.65;;;;;;;13.41;57.74;100916.81;5083149;28;20097;-51
2022/05/29 06:28:49;;;;;;;3.80;1.45;;;;;;;13.44;57.68;100925.50;5086483;28;20032;-50
2022/05/29 06:31:15;;;;;;;3.33;1.70;;;;;;;13.44;57.35;100923.72;5078165;28;20555;-52
2022/05/29 06:33:40;;;;;;;6.65;1.95;;;;;;;13.41;57.38;100916.00;5081050;28;20458;-53
2022/05/29 06:36:21;;;;;;;4.03;1.70;;;;;;;13.44;57.53;100920.22;5087574;28;20028;-52
2022/05/29 06:38:47;;;;;;;4.53;1.88;;;;;;;13.46;57.21;100916.50;5082545;28;20937;-50
2022/05/29 06:41:15;;;;;;;6.43;2.03;;;;;;;13.47;57.37;100925.31;5091364;28;20073;-50
2022/05/29 06:43:40;;;;;;;3.55;1.75;;;;;;;13.46;57.33;100918.31;5082473;28;20028;-53
2022/05/29 06:46:08;;;;;;;5.43;1.70;;;;;;;13.46;57.41;100918.31;5083351;28;20042;-51
2022/05/29 06:48:35;;;;;;;6.32;1.90;;;;;;;13.48;57.53;100921.72;5074066;28;20035;-55
2022/05/29 06:51:12;;;;;;;4.82;1.90;;;;;;;13.54;57.66;100922.16;5074175;28;20125;-51
2022/05/29 06:53:38;;;;;;;5.72;1.70;;;;;;;13.62;57.26;100926.91;5077252;28;20028;-52
2022/05/29 06:56:05;;;;;;;4.30;1.40;;;;;;;13.67;56.93;100932.75;5078159;28;20065;-54
2022/05/29 06:58:31;;;;;;;3.35;1.40;;;;;;;13.71;56.40;100934.22;5085170;28;20032;-50
2022/05/29 07:09:19;;;;;;;7.15;1.80;;;;;;;13.99;55.99;100926.19;5078782;28;20550;-53
2022/05/29 07:11:47;;;;;;;4.65;1.50;;;;;;;14.08;55.76;100924.72;5086433;28;20637;-52
2022/05/29 07:14:14;;;;;;;3.42;1.67;;;;;;;14.16;55.73;100932.94;5086125;28;20108;-50
2022/05/29 07:16:40;;;;;;;4.20;1.70;;;;;;;14.18;55.33;100925.75;5091970;28;20087;-53
2022/05/29 07:19:05;;;;;;;4.18;1.60;;;;;;;14.18;55.28;100929.25;5085652;28;20036;-53
2022/05/29 07:21:36;;;;;;;5.55;1.83;;;;;;;14.18;55.28;100925.75;5071577;28;20032;-54
2022/05/29 07:24:01;;;;;;;2.80;1.48;;;;;;;14.19;55.20;100927.44;5081952;28;20035;-52
2022/05/29 07:26:27;;;;;;;7.72;1.80;;;;;;;14.20;55.25;100928.31;5073283;28;20033;-57
2022/05/29 07:28:53;;;;;;;6.60;1.75;;;;;;;14.21;55.16;100919.41;5079758;28;20024;-52
2022/05/29 07:31:19;;;;;;;4.40;1.70;;;;;;;14.26;55.32;100925.22;5085955;28;20145;-53
2022/05/29 07:33:44;;;;;;;2.95;1.40;;;;;;;14.33;55.09;100915.88;5092001;28;20085;-53
2022/05/29 07:36:11;;;;;;;6.05;1.70;;;;;;;14.37;55.10;100929.75;5082676;28;20028;-56
2022/05/29 07:38:37;;;;;;;5.28;1.80;;;;;;;14.41;55.17;100921.47;5072073;28;20027;-51
2022/05/29 07:43:18;;;;;;;3.42;1.75;;;;;;;14.44;55.09;100920.44;5077714;28;20476;-52
2022/05/29 07:43:48;;;;;;;4.28;1.60;;;;;;;14.50;55.05;100927.09;5094005;28;20031;-49
2022/05/29 07:46:14;;;;;;;5.65;2.40;;;;;;;14.52;54.44;100927.81;5080028;28;20035;-53
2022/05/29 07:48:39;;;;;;;4.88;2.50;;;;;;;14.50;54.57;100925.25;5085057;28;20063;-51
2022/05/29 07:51:05;;;;;;;5.15;2.33;;;;;;;14.52;54.62;100928.66;5080256;28;20047;-57
2022/05/29 07:53:30;;;;;;;6.85;1.60;;;;;;;14.50;54.72;100924.44;5089528;28;20032;-52
2022/05/29 07:55:56;;;;;;;5.45;2.10;;;;;;;14.52;54.60;100926.00;5091699;28;20024;-51
2022/05/29 07:58:21;;;;;;;3.28;1.73;;;;;;;14.55;54.34;100925.78;5088830;28;20586;-50
2022/05/29 08:00:47;;;;;;;4.70;1.70;;;;;;;14.61;54.34;100924.50;5083813;28;20044;-52
2022/05/29 08:03:12;;;;;;;6.90;1.70;;;;;;;14.69;54.01;100926.63;5087008;28;20072;-52
2022/05/29 08:05:39;;;;;;;5.40;1.80;;;;;;;14.75;53.63;100926.16;5078144;28;20028;-54
2022/05/29 08:08:08;;;;;;;4.75;2.00;;;;;;;14.80;53.67;100937.28;5091137;28;20028;-50
2022/05/29 08:10:35;;;;;;;5.45;2.30;;;;;;;14.82;53.61;100938.03;5097920;28;20028;-53
2022/05/29 08:13:01;;;;;;;3.58;1.90;;;;;;;14.81;53.55;100928.38;5081427;28;20016;-54
2022/05/29 08:15:27;;;;;;;3.03;2.30;;;;;;;14.83;53.54;100934.41;5089061;28;20545;-52
2022/05/29 08:17:53;;;;;;;3.13;1.50;;;;;;;14.85;53.36;100936.94;5087471;28;20032;-53
2022/05/29 08:20:19;;;;;;;4.47;1.55;;;;;;;14.89;53.34;100936.63;5077872;28;20040;-55
2022/05/29 08:22:45;;;;;;;4.43;1.60;;;;;;;14.99;53.06;100943.91;5081478;28;20035;-53
2022/05/29 08:30:51;;;;;;;6.03;1.92;;;;;;;15.14;52.45;100929.53;5078339;28;20083;-56
2022/05/29 08:33:20;;;;;;;7.65;2.28;;;;;;;15.13;52.13;100941.06;5082869;28;20032;-55
2022/05/29 08:35:48;;;;;;;4.00;1.60;;;;;;;15.11;52.10;100944.81;5087874;28;20107;-53
2022/05/29 08:38:16;;;;;;;5.53;1.77;;;;;;;15.11;51.70;100937.69;5080975;28;20544;-53
2022/05/29 08:40:45;;;;;;;2.50;1.67;;;;;;;15.13;51.64;100940.22;5086170;28;20032;-53
2022/05/29 08:43:17;;;;;;;6.13;1.75;;;;;;;15.10;51.66;100946.59;5088977;28;20084;-52
2022/05/29 08:45:48;;;;;;;4.28;1.75;;;;;;;15.14;51.74;100944.56;5090357;27;20510;-54
2022/05/29 08:48:15;;;;;;;5.75;1.80;;;;;;;15.18;51.48;100946.03;5074054;28;20048;-54
2022/05/29 08:51:07;;;;;;;5.90;1.73;;;;;;;15.21;51.60;100938.69;5077170;28;20097;-54
2022/05/29 08:53:38;;;;;;;5.90;1.58;;;;;;;15.28;51.60;100946.19;5077756;28;20539;-54
2022/05/29 08:56:33;;;;;;;5.60;2.13;;;;;;;15.28;51.44;100941.72;5076349;28;20081;-54
2022/05/29 08:59:21;;;;;;;7.45;2.15;;;;;;;15.32;51.59;100937.91;5075438;28;20032;-51
2022/05/29 09:02:12;;;;;;;4.93;1.95;;;;;;;15.40;51.54;100942.63;5082765;28;20255;-52
2022/05/29 09:04:45;;;;;;;7.70;3.55;;;;;;;15.47;51.06;100946.53;5082417;28;20589;-53
2022/05/29 09:07:15;;;;;;;5.30;1.70;;;;;;;15.47;50.91;100941.22;5083740;28;20048;-55
2022/05/29 09:09:48;;;;;;;7.55;1.67;;;;;;;15.47;50.78;100941.22;5083130;28;20050;-54
2022/05/29 09:12:31;;;;;;;3.97;1.52;;;;;;;15.46;50.80;100947.47;5079535;28;20059;-54
2022/05/29 09:15:16;;;;;;;7.70;2.10;;;;;;;15.43;51.01;100945.06;5086438;28;20036;-54
2022/05/29 09:17:49;;;;;;;8.05;2.10;;;;;;;15.49;51.24;100934.00;5086451;28;20024;-53
2022/05/29 09:20:36;;;;;;;4.45;2.10;;;;;;;15.51;51.03;100937.34;5077051;28;20024;-56
2022/05/29 09:23:05;;;;;;;5.32;1.95;;;;;;;15.59;50.90;100933.28;5076434;28;20440;-54
2022/05/29 09:25:35;;;;;;;5.53;2.20;;;;;;;15.66;50.94;100929.19;5083145;28;20558;-54
2022/05/29 09:28:04;;;;;;;6.95;2.20;;;;;;;15.73;50.99;100932.25;5077986;28;20115;-56
2022/05/29 09:30:30;;;;;;;4.38;1.83;;;;;;;15.81;50.86;100932.47;5074847;28;20384;-54
2022/05/29 09:33:00;;;;;;;8.55;1.95;;;;;;;15.93;50.60;100931.56;5080891;28;20027;-59
2022/05/29 09:35:32;;;;;;;4.95;1.70;;;;;;;16.02;50.30;100930.00;5085425;28;20126;-56
2022/05/29 09:38:06;;;;;;;3.15;1.40;;;;;;;16.02;49.78;100937.97;5082358;28;20028;-53
2022/05/29 09:40:46;;;;;;;5.43;1.80;;;;;;;16.03;49.49;100925.56;5081031;28;20038;-54
2022/05/29 09:43:23;;;;;;;5.68;2.00;;;;;;;16.03;49.61;100937.00;5077682;28;20066;-55
2022/05/29 09:45:50;;;;;;;5.07;2.00;;;;;;;16.06;49.75;100925.28;5075489;28;20032;-51
2022/05/29 09:51:30;;;;;;;4.05;1.73;;;;;;;16.25;49.20;100922.06;5080131;28;20047;-50
2022/05/29 09:54:04;;;;;;;2.97;1.40;;;;;;;16.28;48.88;100924.44;5076967;28;20024;-53
2022/05/29 09:56:34;;;;;;;3.58;1.60;;;;;;;16.32;48.89;100915.28;5078826;28;20055;-51
2022/05/29 09:59:21;;;;;;;6.78;1.77;;;;;;;16.42;48.53;100921.53;5082689;28;20024;-54
2022/05/29 10:01:48;;;;;;;3.28;1.60;;;;;;;16.52;48.54;100923.47;5078254;28;20089;-55
2022/05/29 10:04:31;;;;;;;6.40;1.88;;;;;;;16.60;48.15;100923.69;5073232;28;20077;-54
2022/05/29 10:06:58;;;;;;;3.88;1.60;;;;;;;16.65;48.17;100929.50;5084005;28;20028;-55
2022/05/29 10:09:27;;;;;;;4.30;1.70;;;;;;;16.66;47.96;100927.66;5080558;28;20039;-55
2022/05/29 10:12:15;;;;;;;3.78;1.67;;;;;;;16.68;47.63;100931.03;5081049;28;20024;-55
2022/05/29 10:14:43;;;;;;;5.18;2.25;;;;;;;16.67;47.82;100924.91;5074396;28;20024;-59
2022/05/29 10:17:36;;;;;;;5.70;2.17;;;;;;;16.67;47.75;100926.69;5079319;28;20020;-52
2022/05/29 10:20:03;;;;;;;2.40;1.20;;;;;;;16.65;47.51;100924.19;5070987;28;20040;-52
2022/05/29 10:22:41;;;;;;;5.60;1.60;;;;;;;16.64;47.09;100934.94;5076597;28;20034;-53
2022/05/29 10:25:20;;;;;;;5.03;2.40;;;;;;;16.61;47.14;100928.91;5080470;28;20028;-58
2022/05/29 10:27:49;;;;;;;3.22;1.35;;;;;;;16.61;46.96;100930.69;5075739;28;20033;-55
2022/05/29 10:30:41;;;;;;;4.35;1.55;;;;;;;16.59;47.00;100924.66;5082232;28;20307;-55
2022/05/29 10:33:10;;;;;;;8.90;5.07;;;;;;;16.58;46.86;100915.84;5079828;28;20062;-50
2022/05/29 10:35:38;;;;;;;5.10;2.53;;;;;;;16.59;47.10;100925.53;5082591;28;20043;-55
2022/05/29 10:38:28;;;;;;;3.50;1.42;;;;;;;16.62;47.10;100924.41;5081796;28;20016;-55
2022/05/29 10:41:01;;;;;;;4.43;1.60;;;;;;;16.64;47.17;100919.84;5080693;28;20031;-53
2022/05/29 10:43:51;;;;;;;5.68;1.73;;;;;;;16.63;47.03;100917.31;5079165;28;20499;-52
2022/05/29 10:46:21;;;;;;;4.15;2.30;;;;;;;16.63;46.72;100915.47;5083465;28;20438;-51
2022/05/29 10:48:46;;;;;;;;;;;;;;;16.61;47.10;100923.59;5073790;28;20088;-55
2022/05/29 10:51:36;;;;;;;7.22;3.45;;;;;;;16.60;47.00;100913.94;5082497;28;19916;-55
2022/05/29 10:54:10;;;;;;;3.97;1.83;;;;;;;16.60;46.75;100918.38;5078616;28;20103;-52
2022/05/29 10:56:58;;;;;;;5.57;1.88;;;;;;;16.56;46.67;100920.44;5080571;28;20158;-55
2022/05/29 10:59:42;;;;;;;6.72;2.58;;;;;;;16.49;46.70;100918.41;5072563;28;20028;-50
2022/05/29 11:05:47;;;;;;;4.05;1.48;;;;;;;16.39;46.97;100927.13;5083378;28;20043;-54
2022/05/29 11:08:30;;;;;;;3.75;1.40;;;;;;;16.41;47.44;100917.19;5084828;28;20039;-51
2022/05/29 11:11:01;;;;;;;5.60;1.48;;;;;;;16.44;47.05;100909.00;5075252;28;20020;-50
2022/05/29 11:13:37;;;;;;;3.15;1.40;;;;;;;16.42;46.85;100916.22;5080960;28;20024;-56
2022/05/29 11:16:32;;;;;;;3.22;1.45;;;;;;;16.43;46.83;100923.22;5089045;28;20016;-56
2022/05/29 11:19:31;;;;;;;3.30;1.52;;;;;;;16.47;46.83;100918.53;5087540;28;20039;-57
2022/05/29 11:22:22;;;;;;;4.78;1.70;;;;;;;16.52;46.70;100915.50;5080317;28;20047;-58
2022/05/29 11:25:06;;;;;;;4.30;1.50;;;;;;;16.57;46.68;100916.81;5085887;28;20465;-57
2022/05/29 11:27:40;;;;;;;6.90;1.70;;;;;;;16.58;46.76;100915.84;5085120;28;20027;-56
2022/05/29 11:30:14;;;;;;;6.68;1.60;;;;;;;16.59;46.64;100924.66;5088284;28;20039;-56
2022/05/29 11:32:54;;;;;;;5.40;2.20;;;;;;;16.59;46.53;100916.69;5083375;28;20035;-55
2022/05/29 11:35:29;;;;;;;4.45;1.55;;;;;;;16.62;46.64;100911.13;5090334;28;20050;-51
2022/05/29 11:38:48;;;;;;;3.25;1.90;;;;;;;16.64;46.32;100906.53;5083989;28;20040;-59
2022/05/29 11:41:25;;;;;;;4.00;1.27;;;;;;;16.63;46.10;100907.50;4984743;28;20037;-52
2022/05/29 11:44:04;;;;;;;14.45;2.72;;;;;;;16.67;46.18;100908.97;5083360;28;20127;-56
2022/05/29 11:53:26;;;;;;;3.13;1.30;;;;;;;16.60;46.14;100910.41;5077916;28;20026;-56
2022/05/29 11:55:56;;;;;;;9.65;1.85;;;;;;;16.51;46.20;100916.47;5015740;28;20547;-54
2022/05/29 11:58:26;;;;;;;5.27;1.10;;;;;;;16.46;46.13;100917.69;5019095;28;20052;-53
2022/05/29 12:01:01;;;;;;;9.75;1.42;;;;;;;16.46;45.84;100909.72;5057425;28;20816;-56
2022/05/29 12:03:43;;;;;;;2.75;0.85;;;;;;;16.44;45.07;100913.47;5085078;28;20028;-52
2022/05/29 12:06:31;;;;;;;1.10;0.73;;;;;;;16.36;44.87;100914.09;5081167;28;20051;-51
2022/05/29 12:09:11;;;;;;;1.77;0.98;;;;;;;16.34;44.58;100908.03;5081660;28;20107;-51
2022/05/29 12:11:46;;;;;;;;;;;;;;;16.36;45.02;100910.56;5082455;28;20035;-55
2022/05/29 12:14:14;;;;;;;1.73;0.80;;;;;;;16.37;44.92;100907.81;5083142;28;19918;-54
2022/05/29 12:16:43;;;;;;;1.15;0.70;;;;;;;16.40;44.50;100912.03;5087517;28;20024;-54
2022/05/29 12:19:17;;;;;;;0.80;0.60;;;;;;;16.39;44.15;100911.19;5088398;28;20024;-55
2022/05/29 12:21:59;;;;;;;0.98;0.65;;;;;;;16.40;44.02;100902.25;5073158;28;20431;-53
2022/05/29 12:24:28;;;;;;;2.38;0.88;;;;;;;16.49;44.48;100902.47;5078533;28;20104;-53